createdAt,value
2019-02-22T00:00:16.416Z,12.45
2019-02-22T00:00:42.529Z,12.45
2019-02-22T00:01:08.633Z,12.5
2019-02-22T00:01:34.743Z,12.42
2019-02-22T00:02:00.844Z,12.47
2019-02-22T00:02:26.947Z,12.43
2019-02-22T00:02:53.057Z,12.35
2019-02-22T00:03:19.191Z,12.39
2019-02-22T00:03:45.304Z,12.36
2019-02-22T00:04:11.403Z,12.36
2019-02-22T00:04:37.512Z,12.39
2019-02-22T00:05:03.645Z,12.43
2019-02-22T00:05:29.772Z,12.37
2019-02-22T00:05:55.877Z,12.35
2019-02-22T00:06:21.987Z,12.35
2019-02-22T00:06:48.091Z,12.42
2019-02-22T00:07:14.224Z,12.32
2019-02-22T00:07:40.325Z,12.4
2019-02-22T00:08:06.436Z,12.39
2019-02-22T00:08:32.579Z,12.43
2019-02-22T00:08:58.687Z,12.45
2019-02-22T00:09:24.793Z,12.46
2019-02-22T00:09:52.872Z,12.4
2019-02-22T00:10:18.989Z,12.39
2019-02-22T00:10:45.146Z,12.43
2019-02-22T00:11:11.255Z,12.46
2019-02-22T00:11:37.393Z,12.49
2019-02-22T00:12:03.499Z,12.42
2019-02-22T00:12:29.672Z,12.45
2019-02-22T00:12:55.767Z,12.45
2019-02-22T00:13:21.879Z,12.43
2019-02-22T00:13:47.984Z,12.4
2019-02-22T00:14:14.118Z,12.36
2019-02-22T00:14:40.288Z,12.39
2019-02-22T00:15:06.390Z,12.32
2019-02-22T00:15:32.500Z,12.36
2019-02-22T00:15:58.634Z,12.4
2019-02-22T00:16:24.771Z,12.4
2019-02-22T00:16:51.873Z,12.37
2019-02-22T00:17:17.979Z,12.36
2019-02-22T00:17:44.083Z,12.39
2019-02-22T00:18:10.198Z,12.39
2019-02-22T00:18:36.305Z,12.37
2019-02-22T00:19:02.417Z,12.39
2019-02-22T00:19:28.519Z,12.39
2019-02-22T00:19:54.626Z,12.42
2019-02-22T00:20:20.733Z,12.39
2019-02-22T00:20:46.897Z,12.31
2019-02-22T00:21:12.998Z,12.32
2019-02-22T00:21:39.108Z,12.37
2019-02-22T00:22:05.220Z,12.24
2019-02-22T00:22:31.352Z,12.31
2019-02-22T00:22:57.462Z,12.32
2019-02-22T00:23:23.563Z,12.4
2019-02-22T00:23:49.669Z,12.22
2019-02-22T00:24:15.776Z,12.24
2019-02-22T00:24:41.885Z,12.21
2019-02-22T00:25:08.025Z,12.36
2019-02-22T00:25:34.134Z,12.27
2019-02-22T00:26:00.235Z,12.24
2019-02-22T00:26:26.924Z,12.18
2019-02-22T00:26:53.056Z,12.21
2019-02-22T00:27:19.178Z,12.24
2019-02-22T00:27:45.291Z,12.18
2019-02-22T00:28:11.395Z,12.25
2019-02-22T00:28:37.497Z,12.15
2019-02-22T00:29:03.608Z,12.31
2019-02-22T00:29:29.718Z,12.32
2019-02-22T00:29:55.854Z,12.31
2019-02-22T00:30:21.957Z,12.39
2019-02-22T00:30:48.151Z,12.25
2019-02-22T00:31:14.259Z,12.31
2019-02-22T00:31:40.363Z,12.28
2019-02-22T00:32:06.464Z,12.22
2019-02-22T00:32:32.586Z,12.36
2019-02-22T00:32:58.714Z,12.37
2019-02-22T00:33:24.830Z,12.32
2019-02-22T00:33:50.932Z,12.28
2019-02-22T00:34:17.040Z,12.36
2019-02-22T00:34:43.307Z,12.27
2019-02-22T00:35:09.533Z,12.37
2019-02-22T00:35:35.805Z,12.31
2019-02-22T00:36:01.924Z,12.32
2019-02-22T00:36:29.011Z,12.32
2019-02-22T00:36:55.350Z,12.42
2019-02-22T00:37:21.422Z,12.4
2019-02-22T00:37:47.568Z,12.39
2019-02-22T00:38:13.675Z,12.4
2019-02-22T00:38:40.765Z,12.4
2019-02-22T00:39:06.875Z,12.42
2019-02-22T00:39:32.979Z,12.45
2019-02-22T00:39:59.087Z,12.46
2019-02-22T00:40:25.198Z,12.45
2019-02-22T00:40:51.323Z,12.46
2019-02-22T00:41:17.426Z,12.46
2019-02-22T00:41:43.542Z,12.45
2019-02-22T00:42:09.671Z,12.45
2019-02-22T00:42:35.778Z,12.46
2019-02-22T00:43:01.884Z,12.45
2019-02-22T00:43:27.992Z,12.46
2019-02-22T00:43:54.098Z,12.47
2019-02-22T00:44:20.235Z,12.47
2019-02-22T00:44:46.368Z,12.5
2019-02-22T00:45:12.504Z,12.49
2019-02-22T00:45:38.610Z,12.5
2019-02-22T00:46:04.716Z,12.47
2019-02-22T00:46:30.851Z,12.5
2019-02-22T00:46:56.983Z,12.54
2019-02-22T00:47:23.098Z,12.47
2019-02-22T00:47:49.204Z,12.49
2019-02-22T00:48:15.310Z,12.5
2019-02-22T00:48:41.420Z,12.47
2019-02-22T00:49:07.531Z,12.53
2019-02-22T00:49:33.636Z,12.49
2019-02-22T00:49:59.745Z,12.49
2019-02-22T00:50:25.854Z,12.57
2019-02-22T00:50:51.961Z,12.53
2019-02-22T00:51:18.058Z,12.58
2019-02-22T00:51:44.169Z,12.55
2019-02-22T00:52:10.278Z,12.55
2019-02-22T00:52:36.390Z,12.54
2019-02-22T00:53:02.523Z,12.64
2019-02-22T00:53:28.686Z,12.65
2019-02-22T00:53:54.830Z,12.61
2019-02-22T00:54:20.959Z,12.64
2019-02-22T00:54:47.099Z,12.5
2019-02-22T00:55:13.227Z,12.55
2019-02-22T00:55:39.335Z,12.5
2019-02-22T00:56:05.441Z,12.57
2019-02-22T00:56:31.574Z,12.49
2019-02-22T00:56:57.686Z,12.55
2019-02-22T00:57:23.818Z,12.57
2019-02-22T00:57:49.933Z,12.58
2019-02-22T00:58:16.026Z,12.62
2019-02-22T00:58:42.137Z,12.55
2019-02-22T00:59:08.252Z,12.57
2019-02-22T00:59:34.361Z,12.61
2019-02-22T01:00:00.474Z,12.58
2019-02-22T01:00:26.580Z,12.58
2019-02-22T01:00:52.683Z,12.7
2019-02-22T01:01:18.846Z,12.61
2019-02-22T01:01:44.955Z,12.65
2019-02-22T01:02:11.093Z,12.67
2019-02-22T01:02:37.194Z,12.67
2019-02-22T01:03:03.306Z,12.62
2019-02-22T01:03:29.415Z,12.6
2019-02-22T01:03:55.517Z,12.62
2019-02-22T01:04:21.651Z,12.61
2019-02-22T01:04:47.763Z,12.64
2019-02-22T01:05:13.868Z,12.55
2019-02-22T01:05:39.977Z,12.53
2019-02-22T01:06:06.085Z,12.55
2019-02-22T01:06:32.190Z,12.53
2019-02-22T01:06:58.292Z,12.5
2019-02-22T01:07:24.397Z,12.49
2019-02-22T01:07:50.505Z,12.57
2019-02-22T01:08:16.613Z,12.5
2019-02-22T01:08:42.717Z,12.49
2019-02-22T01:09:08.830Z,12.53
2019-02-22T01:09:34.938Z,12.53
2019-02-22T01:10:01.045Z,12.54
2019-02-22T01:10:30.968Z,12.5
2019-02-22T01:10:55.299Z,12.53
2019-02-22T01:11:21.406Z,12.53
2019-02-22T01:11:47.551Z,12.57
2019-02-22T01:12:13.677Z,12.53
2019-02-22T01:12:39.801Z,12.6
2019-02-22T01:13:05.913Z,12.6
2019-02-22T01:13:32.054Z,12.64
2019-02-22T01:13:58.167Z,12.61
2019-02-22T01:14:24.270Z,12.67
2019-02-22T01:14:50.380Z,12.61
2019-02-22T01:15:16.525Z,12.65
2019-02-22T01:15:42.666Z,12.64
2019-02-22T01:16:08.852Z,12.58
2019-02-22T01:16:34.997Z,12.6
2019-02-22T01:17:01.125Z,12.58
2019-02-22T01:17:27.230Z,12.47
2019-02-22T01:17:53.365Z,12.46
2019-02-22T01:18:19.473Z,12.46
2019-02-22T01:18:45.584Z,12.49
2019-02-22T01:19:11.690Z,12.46
2019-02-22T01:19:37.792Z,12.46
2019-02-22T01:20:03.964Z,12.45
2019-02-22T01:20:30.099Z,12.45
2019-02-22T01:20:58.186Z,12.5
2019-02-22T01:21:24.292Z,12.45
2019-02-22T01:21:50.395Z,12.47
2019-02-22T01:22:16.511Z,12.43
2019-02-22T01:22:42.621Z,12.46
2019-02-22T01:23:08.753Z,12.43
2019-02-22T01:23:34.858Z,12.49
2019-02-22T01:24:00.968Z,12.47
2019-02-22T01:24:27.111Z,12.46
2019-02-22T01:24:53.228Z,12.45
2019-02-22T01:25:19.325Z,12.37
2019-02-22T01:25:45.435Z,12.45
2019-02-22T01:26:11.542Z,12.47
2019-02-22T01:26:37.714Z,12.47
2019-02-22T01:27:03.843Z,12.39
2019-02-22T01:27:29.947Z,12.45
2019-02-22T01:27:56.064Z,12.47
2019-02-22T01:28:22.197Z,12.46
2019-02-22T01:28:48.309Z,12.49
2019-02-22T01:29:14.416Z,12.5
2019-02-22T01:29:40.561Z,12.47
2019-02-22T01:30:06.664Z,12.53
2019-02-22T01:30:32.797Z,12.46
2019-02-22T01:30:58.931Z,12.47
2019-02-22T01:31:25.043Z,12.54
2019-02-22T01:31:51.689Z,12.53
2019-02-22T01:32:17.791Z,12.61
2019-02-22T01:32:43.913Z,12.53
2019-02-22T01:33:10.031Z,12.55
2019-02-22T01:33:36.169Z,12.49
2019-02-22T01:34:03.299Z,12.47
2019-02-22T01:34:29.432Z,12.49
2019-02-22T01:34:55.532Z,12.5
2019-02-22T01:35:21.641Z,12.49
2019-02-22T01:35:47.748Z,12.49
2019-02-22T01:36:13.858Z,12.47
2019-02-22T01:36:40.053Z,12.55
2019-02-22T01:37:06.161Z,12.53
2019-02-22T01:37:32.259Z,12.55
2019-02-22T01:37:58.365Z,12.58
2019-02-22T01:38:24.469Z,12.6
2019-02-22T01:38:50.576Z,12.58
2019-02-22T01:39:16.715Z,12.5
2019-02-22T01:39:42.817Z,12.57
2019-02-22T01:40:08.953Z,12.62
2019-02-22T01:40:42.957Z,12.64
2019-02-22T01:41:02.187Z,12.55
2019-02-22T01:41:28.305Z,12.62
2019-02-22T01:41:54.439Z,12.54
2019-02-22T01:42:20.546Z,12.58
2019-02-22T01:42:46.649Z,12.57
2019-02-22T01:43:12.751Z,12.64
2019-02-22T01:43:38.858Z,12.64
2019-02-22T01:44:04.965Z,12.62
2019-02-22T01:44:31.103Z,12.65
2019-02-22T01:44:57.203Z,12.62
2019-02-22T01:45:23.306Z,12.67
2019-02-22T01:45:49.417Z,12.61
2019-02-22T01:46:15.522Z,12.68
2019-02-22T01:46:41.630Z,12.64
2019-02-22T01:47:07.769Z,12.61
2019-02-22T01:47:33.876Z,12.67
2019-02-22T01:48:00.016Z,12.67
2019-02-22T01:48:26.111Z,12.64
2019-02-22T01:48:52.224Z,12.72
2019-02-22T01:49:18.329Z,12.72
2019-02-22T01:49:44.441Z,12.72
2019-02-22T01:50:10.708Z,12.62
2019-02-22T01:50:36.813Z,12.65
2019-02-22T01:51:02.931Z,12.7
2019-02-22T01:51:29.060Z,12.6
2019-02-22T01:51:55.197Z,12.7
2019-02-22T01:52:21.332Z,12.61
2019-02-22T01:52:47.447Z,12.6
2019-02-22T01:53:13.551Z,12.68
2019-02-22T01:53:39.669Z,12.64
2019-02-22T01:54:05.798Z,12.61
2019-02-22T01:54:31.905Z,12.57
2019-02-22T01:54:58.008Z,12.72
2019-02-22T01:55:24.119Z,12.62
2019-02-22T01:55:50.232Z,12.58
2019-02-22T01:56:16.361Z,12.57
2019-02-22T01:56:42.491Z,12.6
2019-02-22T01:57:08.629Z,12.62
2019-02-22T01:57:34.739Z,12.75
2019-02-22T01:58:00.844Z,12.58
2019-02-22T01:58:26.985Z,12.75
2019-02-22T01:58:55.068Z,12.65
2019-02-22T01:59:21.170Z,12.73
2019-02-22T01:59:47.284Z,12.7
2019-02-22T02:00:13.410Z,12.76
2019-02-22T02:00:39.514Z,12.64
2019-02-22T02:01:05.646Z,12.76
2019-02-22T02:01:31.754Z,12.85
2019-02-22T02:01:57.884Z,12.75
2019-02-22T02:02:23.992Z,12.65
2019-02-22T02:02:50.092Z,12.7
2019-02-22T02:03:16.239Z,12.73
2019-02-22T02:03:42.339Z,12.76
2019-02-22T02:04:08.445Z,12.7
2019-02-22T02:04:34.548Z,12.67
2019-02-22T02:05:00.696Z,12.7
2019-02-22T02:05:26.859Z,12.73
2019-02-22T02:05:52.967Z,12.7
2019-02-22T02:06:19.080Z,12.65
2019-02-22T02:06:45.187Z,12.62
2019-02-22T02:07:11.288Z,12.72
2019-02-22T02:07:37.439Z,12.7
2019-02-22T02:08:03.545Z,12.67
2019-02-22T02:08:29.649Z,12.68
2019-02-22T02:08:55.757Z,12.72
2019-02-22T02:09:21.864Z,12.57
2019-02-22T02:09:47.976Z,12.72
2019-02-22T02:10:14.082Z,12.68
2019-02-22T02:10:40.184Z,12.68
2019-02-22T02:11:07.302Z,12.67
2019-02-22T02:11:33.407Z,12.55
2019-02-22T02:12:01.777Z,12.54
2019-02-22T02:12:26.652Z,12.58
2019-02-22T02:12:52.758Z,12.55
2019-02-22T02:13:18.861Z,12.55
2019-02-22T02:13:45.037Z,12.58
2019-02-22T02:14:11.172Z,12.58
2019-02-22T02:14:37.319Z,12.65
2019-02-22T02:15:03.378Z,12.58
2019-02-22T02:15:29.505Z,12.62
2019-02-22T02:15:55.637Z,12.62
2019-02-22T02:16:21.744Z,12.58
2019-02-22T02:16:47.854Z,12.58
2019-02-22T02:17:13.963Z,12.61
2019-02-22T02:17:40.061Z,12.65
2019-02-22T02:18:06.170Z,12.7
2019-02-22T02:18:32.278Z,12.57
2019-02-22T02:18:58.417Z,12.64
2019-02-22T02:19:24.554Z,12.62
2019-02-22T02:19:50.660Z,12.64
2019-02-22T02:20:16.901Z,12.64
2019-02-22T02:20:43.190Z,12.67
2019-02-22T02:21:09.357Z,12.7
2019-02-22T02:21:35.490Z,12.65
2019-02-22T02:22:01.595Z,12.67
2019-02-22T02:22:27.703Z,12.57
2019-02-22T02:22:53.835Z,12.55
2019-02-22T02:23:19.943Z,12.68
2019-02-22T02:23:46.045Z,12.68
2019-02-22T02:24:12.155Z,12.72
2019-02-22T02:24:38.317Z,12.68
2019-02-22T02:25:04.426Z,12.61
2019-02-22T02:25:30.540Z,12.7
2019-02-22T02:25:56.677Z,12.65
2019-02-22T02:26:22.784Z,12.61
2019-02-22T02:26:48.890Z,12.67
2019-02-22T02:27:15.033Z,12.72
2019-02-22T02:27:41.170Z,12.68
2019-02-22T02:28:07.268Z,12.72
2019-02-22T02:28:33.379Z,12.54
2019-02-22T02:29:00.480Z,12.6
2019-02-22T02:29:26.581Z,12.55
2019-02-22T02:29:52.694Z,12.61
2019-02-22T02:30:18.877Z,12.6
2019-02-22T02:30:45.014Z,12.57
2019-02-22T02:31:11.117Z,12.61
2019-02-22T02:31:37.220Z,12.68
2019-02-22T02:32:03.374Z,12.67
2019-02-22T02:32:29.515Z,12.58
2019-02-22T02:32:55.620Z,12.68
2019-02-22T02:33:21.755Z,12.67
2019-02-22T02:33:47.890Z,12.55
2019-02-22T02:34:14.033Z,12.62
2019-02-22T02:34:40.241Z,12.58
2019-02-22T02:35:06.353Z,12.55
2019-02-22T02:35:32.481Z,12.72
2019-02-22T02:35:58.580Z,12.58
2019-02-22T02:36:24.692Z,12.53
2019-02-22T02:36:50.809Z,12.58
2019-02-22T02:37:16.905Z,12.7
2019-02-22T02:37:43.009Z,12.55
2019-02-22T02:38:09.116Z,12.65
2019-02-22T02:38:35.220Z,12.61
2019-02-22T02:39:01.321Z,12.6
2019-02-22T02:39:27.424Z,12.67
2019-02-22T02:39:53.566Z,12.68
2019-02-22T02:40:19.702Z,12.58
2019-02-22T02:40:45.841Z,12.58
2019-02-22T02:41:14.917Z,12.61
2019-02-22T02:41:41.046Z,12.65
2019-02-22T02:42:07.152Z,12.62
2019-02-22T02:42:33.265Z,12.62
2019-02-22T02:42:59.396Z,12.58
2019-02-22T02:43:25.529Z,12.65
2019-02-22T02:43:51.641Z,12.65
2019-02-22T02:44:17.807Z,12.62
2019-02-22T02:44:43.906Z,12.61
2019-02-22T02:45:10.069Z,12.53
2019-02-22T02:45:36.181Z,12.65
2019-02-22T02:46:02.284Z,12.67
2019-02-22T02:46:28.396Z,12.64
2019-02-22T02:46:54.531Z,12.65
2019-02-22T02:47:20.643Z,12.62
2019-02-22T02:47:46.807Z,12.6
2019-02-22T02:48:12.910Z,12.62
2019-02-22T02:48:39.018Z,12.64
2019-02-22T02:49:05.148Z,12.65
2019-02-22T02:49:31.257Z,12.64
2019-02-22T02:49:57.368Z,12.57
2019-02-22T02:50:23.509Z,12.62
2019-02-22T02:50:49.617Z,12.61
2019-02-22T02:51:15.716Z,12.62
2019-02-22T02:51:41.855Z,12.67
2019-02-22T02:52:07.954Z,12.58
2019-02-22T02:52:34.069Z,12.54
2019-02-22T02:53:00.176Z,12.7
2019-02-22T02:53:26.311Z,12.67
2019-02-22T02:53:52.454Z,12.61
2019-02-22T02:54:18.598Z,12.61
2019-02-22T02:54:44.704Z,12.61
2019-02-22T02:55:10.898Z,12.7
2019-02-22T02:55:37.022Z,12.64
2019-02-22T02:56:03.139Z,12.64
2019-02-22T02:56:29.272Z,12.68
2019-02-22T02:56:56.363Z,12.72
2019-02-22T02:57:22.471Z,12.61
2019-02-22T02:57:48.575Z,12.57
2019-02-22T02:58:14.680Z,12.6
2019-02-22T02:58:40.788Z,12.62
2019-02-22T02:59:06.894Z,12.62
2019-02-22T02:59:32.996Z,12.55
2019-02-22T02:59:59.121Z,12.64
2019-02-22T03:00:25.274Z,12.62
2019-02-22T03:00:51.439Z,12.58
2019-02-22T03:01:17.550Z,12.57
2019-02-22T03:01:43.795Z,12.6
2019-02-22T03:02:09.861Z,12.72
2019-02-22T03:02:35.992Z,12.68
2019-02-22T03:03:02.097Z,12.7
2019-02-22T03:03:28.231Z,12.65
2019-02-22T03:03:54.441Z,12.65
2019-02-22T03:04:20.510Z,12.7
2019-02-22T03:04:46.666Z,12.7
2019-02-22T03:05:12.781Z,12.57
2019-02-22T03:05:38.879Z,12.55
2019-02-22T03:06:04.985Z,12.6
2019-02-22T03:06:31.091Z,12.55
2019-02-22T03:06:57.198Z,12.7
2019-02-22T03:07:23.328Z,12.65
2019-02-22T03:07:49.430Z,12.64
2019-02-22T03:08:15.564Z,12.68
2019-02-22T03:08:41.673Z,12.7
2019-02-22T03:09:07.806Z,12.65
2019-02-22T03:09:33.911Z,12.65
2019-02-22T03:10:00.019Z,12.58
2019-02-22T03:10:26.127Z,12.6
2019-02-22T03:10:52.491Z,12.54
2019-02-22T03:11:21.388Z,12.64
2019-02-22T03:11:47.485Z,12.58
2019-02-22T03:12:13.591Z,12.62
2019-02-22T03:12:39.724Z,12.65
2019-02-22T03:13:05.861Z,12.61
2019-02-22T03:13:31.971Z,12.6
2019-02-22T03:13:58.078Z,12.65
2019-02-22T03:14:24.191Z,12.58
2019-02-22T03:14:50.316Z,12.6
2019-02-22T03:15:16.429Z,12.58
2019-02-22T03:15:42.559Z,12.68
2019-02-22T03:16:08.696Z,12.57
2019-02-22T03:16:34.808Z,12.65
2019-02-22T03:17:00.922Z,12.58
2019-02-22T03:17:27.151Z,12.55
2019-02-22T03:17:53.218Z,12.72
2019-02-22T03:18:19.322Z,12.61
2019-02-22T03:18:45.455Z,12.72
2019-02-22T03:19:11.569Z,12.57
2019-02-22T03:19:37.676Z,12.73
2019-02-22T03:20:03.815Z,12.67
2019-02-22T03:20:29.948Z,12.73
2019-02-22T03:20:56.082Z,12.61
2019-02-22T03:21:22.184Z,12.7
2019-02-22T03:21:48.297Z,12.73
2019-02-22T03:22:14.395Z,12.76
2019-02-22T03:22:40.516Z,12.64
2019-02-22T03:23:06.617Z,12.65
2019-02-22T03:23:32.737Z,12.58
2019-02-22T03:23:58.862Z,12.61
2019-02-22T03:24:24.972Z,12.58
2019-02-22T03:24:53.578Z,12.72
2019-02-22T03:25:18.184Z,12.68
2019-02-22T03:25:44.291Z,12.61
2019-02-22T03:26:10.394Z,12.68
2019-02-22T03:26:36.513Z,12.72
2019-02-22T03:27:02.621Z,12.61
2019-02-22T03:27:28.725Z,12.7
2019-02-22T03:27:54.837Z,12.64
2019-02-22T03:28:20.978Z,12.67
2019-02-22T03:28:47.082Z,12.78
2019-02-22T03:29:13.191Z,12.7
2019-02-22T03:29:39.300Z,12.85
2019-02-22T03:30:06.083Z,12.79
2019-02-22T03:30:32.274Z,12.75
2019-02-22T03:30:58.389Z,12.79
2019-02-22T03:31:24.496Z,12.82
2019-02-22T03:31:50.606Z,12.8
2019-02-22T03:32:16.739Z,12.75
2019-02-22T03:32:42.912Z,12.75
2019-02-22T03:33:09.211Z,12.7
2019-02-22T03:33:35.346Z,12.78
2019-02-22T03:34:01.483Z,12.7
2019-02-22T03:34:27.875Z,12.7
2019-02-22T03:34:54.009Z,12.75
2019-02-22T03:35:20.150Z,12.75
2019-02-22T03:35:46.289Z,12.7
2019-02-22T03:36:12.426Z,12.72
2019-02-22T03:36:38.585Z,12.73
2019-02-22T03:37:04.691Z,12.73
2019-02-22T03:37:30.803Z,12.65
2019-02-22T03:37:56.931Z,12.76
2019-02-22T03:38:23.035Z,12.82
2019-02-22T03:38:49.142Z,12.73
2019-02-22T03:39:15.257Z,12.79
2019-02-22T03:39:41.433Z,12.72
2019-02-22T03:40:07.567Z,12.7
2019-02-22T03:40:33.701Z,12.67
2019-02-22T03:40:59.806Z,12.78
2019-02-22T03:41:32.560Z,12.64
2019-02-22T03:41:54.529Z,12.76
2019-02-22T03:42:20.632Z,12.72
2019-02-22T03:42:46.742Z,12.7
2019-02-22T03:43:12.880Z,12.72
2019-02-22T03:43:38.976Z,12.76
2019-02-22T03:44:05.090Z,12.67
2019-02-22T03:44:31.192Z,12.65
2019-02-22T03:44:57.294Z,12.7
2019-02-22T03:45:23.406Z,12.72
2019-02-22T03:45:49.547Z,12.7
2019-02-22T03:46:15.659Z,12.73
2019-02-22T03:46:41.765Z,12.72
2019-02-22T03:47:07.899Z,12.78
2019-02-22T03:47:35.278Z,12.75
2019-02-22T03:48:01.135Z,12.83
2019-02-22T03:48:27.266Z,12.82
2019-02-22T03:48:53.367Z,12.85
2019-02-22T03:49:19.480Z,12.86
2019-02-22T03:49:45.606Z,12.79
2019-02-22T03:50:11.713Z,12.8
2019-02-22T03:50:37.845Z,12.83
2019-02-22T03:51:03.958Z,12.82
2019-02-22T03:51:30.068Z,12.8
2019-02-22T03:51:56.243Z,12.8
2019-02-22T03:52:22.343Z,12.82
2019-02-22T03:52:48.454Z,12.8
2019-02-22T03:53:14.553Z,12.87
2019-02-22T03:53:40.663Z,12.82
2019-02-22T03:54:07.761Z,12.78
2019-02-22T03:54:33.877Z,12.76
2019-02-22T03:55:00.002Z,12.8
2019-02-22T03:55:26.123Z,12.86
2019-02-22T03:55:52.248Z,12.83
2019-02-22T03:56:18.402Z,12.85
2019-02-22T03:56:44.565Z,12.85
2019-02-22T03:57:10.697Z,12.83
2019-02-22T03:57:36.804Z,12.82
2019-02-22T03:58:02.905Z,12.78
2019-02-22T03:58:29.012Z,12.83
2019-02-22T03:58:55.119Z,12.78
2019-02-22T03:59:21.256Z,12.83
2019-02-22T03:59:47.364Z,12.83
2019-02-22T04:00:13.533Z,12.76
2019-02-22T04:00:39.649Z,12.82
2019-02-22T04:01:05.751Z,12.82
2019-02-22T04:01:31.859Z,12.72
2019-02-22T04:01:57.955Z,12.76
2019-02-22T04:02:24.088Z,12.7
2019-02-22T04:02:50.197Z,12.67
2019-02-22T04:03:16.309Z,12.73
2019-02-22T04:03:42.445Z,12.76
2019-02-22T04:04:08.559Z,12.73
2019-02-22T04:04:34.693Z,12.65
2019-02-22T04:05:00.795Z,12.67
2019-02-22T04:05:26.935Z,12.67
2019-02-22T04:05:53.046Z,12.68
2019-02-22T04:06:19.169Z,12.64
2019-02-22T04:06:45.272Z,12.75
2019-02-22T04:07:11.386Z,12.76
2019-02-22T04:07:37.488Z,12.68
2019-02-22T04:08:03.633Z,12.62
2019-02-22T04:08:29.739Z,12.61
2019-02-22T04:08:55.844Z,12.64
2019-02-22T04:09:21.949Z,12.75
2019-02-22T04:09:48.082Z,12.75
2019-02-22T04:10:14.244Z,12.78
2019-02-22T04:10:40.407Z,12.67
2019-02-22T04:11:06.520Z,12.7
2019-02-22T04:11:44.606Z,12.65
2019-02-22T04:12:01.725Z,12.7
2019-02-22T04:12:27.836Z,12.7
2019-02-22T04:12:53.970Z,12.75
2019-02-22T04:13:20.089Z,12.73
2019-02-22T04:13:46.254Z,12.7
2019-02-22T04:14:12.365Z,12.7
2019-02-22T04:14:38.463Z,12.65
2019-02-22T04:15:04.577Z,12.55
2019-02-22T04:15:30.685Z,12.61
2019-02-22T04:15:56.790Z,12.6
2019-02-22T04:16:22.895Z,12.62
2019-02-22T04:16:49.005Z,12.67
2019-02-22T04:17:16.098Z,12.65
2019-02-22T04:17:42.212Z,12.68
2019-02-22T04:18:08.310Z,12.64
2019-02-22T04:18:34.445Z,12.68
2019-02-22T04:19:00.557Z,12.49
2019-02-22T04:19:26.659Z,12.65
2019-02-22T04:19:52.771Z,12.67
2019-02-22T04:20:18.901Z,12.62
2019-02-22T04:20:45.037Z,12.7
2019-02-22T04:21:11.147Z,12.57
2019-02-22T04:21:37.258Z,12.64
2019-02-22T04:22:03.362Z,12.62
2019-02-22T04:22:29.477Z,12.55
2019-02-22T04:22:55.587Z,12.61
2019-02-22T04:23:21.726Z,12.7
2019-02-22T04:23:47.829Z,12.6
2019-02-22T04:24:13.937Z,12.67
2019-02-22T04:24:40.038Z,12.64
2019-02-22T04:25:06.228Z,12.7
2019-02-22T04:25:32.331Z,12.68
2019-02-22T04:25:58.463Z,12.7
2019-02-22T04:26:24.567Z,12.7
2019-02-22T04:26:50.693Z,12.65
2019-02-22T04:27:16.809Z,12.62
2019-02-22T04:27:42.907Z,12.65
2019-02-22T04:28:09.012Z,12.67
2019-02-22T04:28:35.115Z,12.68
2019-02-22T04:29:01.225Z,12.58
2019-02-22T04:29:27.338Z,12.61
2019-02-22T04:29:53.450Z,12.57
2019-02-22T04:30:19.580Z,12.58
2019-02-22T04:30:45.741Z,12.61
2019-02-22T04:31:11.840Z,12.65
2019-02-22T04:31:37.980Z,12.58
2019-02-22T04:32:04.113Z,12.57
2019-02-22T04:32:30.250Z,12.57
2019-02-22T04:32:56.354Z,12.53
2019-02-22T04:33:22.461Z,12.53
2019-02-22T04:33:48.565Z,12.55
2019-02-22T04:34:14.675Z,12.55
2019-02-22T04:34:40.806Z,12.5
2019-02-22T04:35:06.909Z,12.53
2019-02-22T04:35:33.020Z,12.57
2019-02-22T04:35:59.189Z,12.6
2019-02-22T04:36:25.332Z,12.53
2019-02-22T04:36:51.453Z,12.57
2019-02-22T04:37:17.559Z,12.55
2019-02-22T04:37:43.667Z,12.58
2019-02-22T04:38:09.768Z,12.67
2019-02-22T04:38:35.929Z,12.6
2019-02-22T04:39:02.043Z,12.62
2019-02-22T04:39:28.151Z,12.61
2019-02-22T04:39:54.263Z,12.61
2019-02-22T04:40:20.366Z,12.62
2019-02-22T04:40:46.467Z,12.7
2019-02-22T04:41:12.579Z,12.6
2019-02-22T04:41:38.690Z,12.62
2019-02-22T04:42:06.770Z,12.67
2019-02-22T04:42:32.910Z,12.61
2019-02-22T04:42:59.004Z,12.6
2019-02-22T04:43:25.118Z,12.7
2019-02-22T04:43:51.224Z,12.7
2019-02-22T04:44:17.330Z,12.62
2019-02-22T04:44:43.463Z,12.7
2019-02-22T04:45:09.573Z,12.64
2019-02-22T04:45:35.710Z,12.73
2019-02-22T04:46:01.907Z,12.7
2019-02-22T04:46:28.775Z,12.64
2019-02-22T04:46:54.878Z,12.75
2019-02-22T04:47:20.982Z,12.64
2019-02-22T04:47:47.121Z,12.72
2019-02-22T04:48:13.253Z,12.73
2019-02-22T04:48:39.384Z,12.72
2019-02-22T04:49:05.499Z,12.75
2019-02-22T04:49:31.607Z,12.68
2019-02-22T04:49:57.739Z,12.7
2019-02-22T04:50:23.874Z,12.72
2019-02-22T04:50:50.007Z,12.75
2019-02-22T04:51:16.142Z,12.68
2019-02-22T04:51:42.272Z,12.68
2019-02-22T04:52:08.409Z,12.75
2019-02-22T04:52:34.547Z,12.7
2019-02-22T04:53:00.668Z,12.75
2019-02-22T04:53:26.782Z,12.75
2019-02-22T04:53:52.894Z,12.85
2019-02-22T04:54:19.053Z,12.79
2019-02-22T04:54:45.151Z,12.82
2019-02-22T04:55:11.254Z,12.86
2019-02-22T04:55:38.355Z,12.79
2019-02-22T04:56:04.464Z,12.86
2019-02-22T04:56:30.572Z,12.72
2019-02-22T04:56:56.675Z,12.79
2019-02-22T04:57:22.803Z,12.78
2019-02-22T04:57:48.904Z,12.76
2019-02-22T04:58:15.037Z,12.67
2019-02-22T04:58:41.140Z,12.68
2019-02-22T04:59:07.242Z,12.72
2019-02-22T04:59:33.357Z,12.68
2019-02-22T04:59:59.517Z,12.72
2019-02-22T05:00:25.623Z,12.73
2019-02-22T05:00:51.883Z,12.73
2019-02-22T05:01:17.987Z,12.82
2019-02-22T05:01:44.118Z,12.68
2019-02-22T05:02:10.228Z,12.72
2019-02-22T05:02:36.329Z,12.72
2019-02-22T05:03:02.436Z,12.72
2019-02-22T05:03:28.557Z,12.86
2019-02-22T05:03:54.692Z,12.75
2019-02-22T05:04:20.869Z,12.78
2019-02-22T05:04:46.965Z,12.85
2019-02-22T05:05:13.077Z,12.87
2019-02-22T05:05:39.190Z,12.86
2019-02-22T05:06:05.323Z,12.75
2019-02-22T05:06:31.453Z,12.79
2019-02-22T05:06:57.563Z,12.68
2019-02-22T05:07:23.674Z,12.7
2019-02-22T05:07:49.805Z,12.64
2019-02-22T05:08:15.913Z,12.62
2019-02-22T05:08:42.021Z,12.75
2019-02-22T05:09:08.145Z,12.62
2019-02-22T05:09:34.254Z,12.73
2019-02-22T05:10:00.378Z,12.73
2019-02-22T05:10:26.468Z,12.65
2019-02-22T05:10:52.575Z,12.73
2019-02-22T05:11:18.676Z,12.76
2019-02-22T05:11:44.808Z,12.65
2019-02-22T05:12:11.947Z,12.67
2019-02-22T05:12:38.084Z,12.76
2019-02-22T05:13:04.183Z,12.75
2019-02-22T05:13:30.293Z,12.62
2019-02-22T05:13:56.417Z,12.68
2019-02-22T05:14:22.559Z,12.67
2019-02-22T05:14:48.675Z,12.73
2019-02-22T05:15:17.745Z,12.67
2019-02-22T05:15:43.843Z,12.73
2019-02-22T05:16:09.984Z,12.62
2019-02-22T05:16:36.081Z,12.6
2019-02-22T05:17:02.192Z,12.73
2019-02-22T05:17:28.301Z,12.7
2019-02-22T05:17:55.398Z,12.7
2019-02-22T05:18:21.504Z,12.72
2019-02-22T05:18:47.612Z,12.73
2019-02-22T05:19:13.745Z,12.58
2019-02-22T05:19:39.846Z,12.55
2019-02-22T05:20:05.994Z,12.58
2019-02-22T05:20:32.055Z,12.58
2019-02-22T05:20:58.222Z,12.55
2019-02-22T05:21:24.309Z,12.57
2019-02-22T05:21:50.414Z,12.67
2019-02-22T05:22:16.519Z,12.68
2019-02-22T05:22:42.649Z,12.65
2019-02-22T05:23:11.727Z,12.68
2019-02-22T05:23:37.833Z,12.75
2019-02-22T05:24:03.999Z,12.7
2019-02-22T05:24:30.101Z,12.75
2019-02-22T05:24:56.242Z,12.7
2019-02-22T05:25:22.347Z,12.75
2019-02-22T05:25:48.455Z,12.68
2019-02-22T05:26:14.571Z,12.7
2019-02-22T05:26:40.679Z,12.76
2019-02-22T05:27:06.809Z,12.72
2019-02-22T05:27:32.938Z,12.7
2019-02-22T05:27:59.076Z,12.73
2019-02-22T05:28:25.207Z,12.73
2019-02-22T05:28:51.309Z,12.7
2019-02-22T05:29:17.452Z,12.73
2019-02-22T05:29:43.556Z,12.82
2019-02-22T05:30:09.693Z,12.72
2019-02-22T05:30:36.594Z,12.72
2019-02-22T05:31:02.734Z,12.7
2019-02-22T05:31:28.876Z,12.85
2019-02-22T05:31:55.014Z,12.73
2019-02-22T05:32:21.168Z,12.76
2019-02-22T05:32:47.277Z,12.73
2019-02-22T05:33:13.385Z,12.67
2019-02-22T05:33:39.521Z,12.72
2019-02-22T05:34:05.620Z,12.75
2019-02-22T05:34:31.728Z,12.75
2019-02-22T05:34:57.862Z,12.75
2019-02-22T05:35:23.974Z,12.68
2019-02-22T05:35:50.091Z,12.67
2019-02-22T05:36:16.198Z,12.68
2019-02-22T05:36:44.189Z,12.7
2019-02-22T05:37:09.465Z,12.65
2019-02-22T05:37:35.595Z,12.7
2019-02-22T05:38:01.696Z,12.75
2019-02-22T05:38:27.808Z,12.79
2019-02-22T05:38:53.909Z,12.75